Time,TemperatureF,DewpointF,PressureIn,WindDirection,WindDirectionDegrees,WindSpeedMPH,WindSpeedGustMPH,Humidity,HourlyPrecipIn,Conditions,Clouds,dailyrainin,SoftwareType,DateUTC
2013-03-13 00:10:00,46.5,35.0,30.07,ESE,103,2.0,5.0,64,0.00,,,0.00,weatherlink.com 1.10,2013-03-13 06:10:00,
2013-03-13 00:25:00,45.8,35.0,30.07,ENE,71,0.0,4.0,66,0.00,,,0.00,weatherlink.com 1.10,2013-03-13 06:25:00,
2013-03-13 00:40:00,44.8,35.0,30.07,East,101,2.0,3.0,68,0.00,,,0.00,weatherlink.com 1.10,2013-03-13 06:40:00,
2013-03-13 00:55:00,44.5,34.0,30.07,East,96,0.0,2.0,68,0.00,,,0.00,weatherlink.com 1.10,2013-03-13 06:55:00,
2013-03-13 01:10:00,43.2,35.0,30.07,East,81,0.0,2.0,72,0.00,,,0.00,weatherlink.com 1.10,2013-03-13 07:10:00,
2013-03-13 01:26:00,42.7,35.0,30.07,East,79,0.0,1.0,74,0.00,,,0.00,weatherlink.com 1.10,2013-03-13 07:26:00,
2013-03-13 01:41:00,41.9,35.0,30.07,East,79,0.0,0.0,77,0.00,,,0.00,weatherlink.com 1.10,2013-03-13 07:41:00,
2013-03-13 01:56:00,41.8,36.0,30.07,East,79,0.0,1.0,79,0.00,,,0.00,weatherlink.com 1.10,2013-03-13 07:56:00,
2013-03-13 02:11:00,41.3,35.0,30.07,ENE,78,0.0,3.0,78,0.00,,,0.00,weatherlink.com 1.10,2013-03-13 08:11:00,
2013-03-13 02:26:00,40.1,35.0,30.06,ENE,59,0.0,2.0,83,0.00,,,0.00,weatherlink.com 1.10,2013-03-13 08:26:00,
2013-03-13 02:41:00,39.9,35.0,30.06,East,101,2.0,5.0,83,0.00,,,0.00,weatherlink.com 1.10,2013-03-13 08:41:00,
2013-03-13 03:41:00,39.8,35.0,30.05,East,91,5.0,6.0,84,0.00,,,0.00,weatherlink.com 1.10,2013-03-13 09:41:00,
2013-03-13 04:11:00,39.7,36.0,30.05,NE,38,6.0,9.0,85,0.00,,,0.00,weatherlink.com 1.10,2013-03-13 10:11:00,
2013-03-13 04:26:00,40.5,35.0,30.05,WSW,243,0.0,3.0,81,0.00,,,0.00,weatherlink.com 1.10,2013-03-13 10:26:00,
2013-03-13 04:41:00,39.6,35.0,30.05,East,94,2.0,4.0,83,0.00,,,0.00,weatherlink.com 1.10,2013-03-13 10:41:00,
2013-03-13 04:56:00,39.1,35.0,30.05,East,96,6.0,7.0,86,0.00,,,0.00,weatherlink.com 1.10,2013-03-13 10:56:00,
2013-03-13 05:11:00,39.0,35.0,30.05,ENE,77,1.0,5.0,86,0.00,,,0.00,weatherlink.com 1.10,2013-03-13 11:11:00,
2013-03-13 05:26:00,38.0,35.0,30.06,ESE,109,0.0,4.0,88,0.00,,,0.00,weatherlink.com 1.10,2013-03-13 11:26:00,
2013-03-13 05:41:00,39.0,35.0,30.06,West,271,0.0,5.0,85,0.00,,,0.00,weatherlink.com 1.10,2013-03-13 11:41:00,
2013-03-13 05:56:00,38.6,35.0,30.06,NNW,342,0.0,1.0,87,0.00,,,0.00,weatherlink.com 1.10,2013-03-13 11:56:00,
2013-03-13 06:11:00,38.3,35.0,30.06,ENE,57,0.0,3.0,88,0.00,,,0.00,weatherlink.com 1.10,2013-03-13 12:11:00,
2013-03-13 06:26:00,38.2,35.0,30.06,WNW,292,0.0,3.0,88,0.00,,,0.00,weatherlink.com 1.10,2013-03-13 12:26:00,
2013-03-13 06:41:00,38.5,35.0,30.06,NW,311,0.0,7.0,88,0.00,,,0.00,weatherlink.com 1.10,2013-03-13 12:41:00,
2013-03-13 06:56:00,38.3,35.0,30.06,NW,315,2.0,4.0,88,0.00,,,0.00,weatherlink.com 1.10,2013-03-13 12:56:00,
2013-03-13 07:11:00,38.1,35.0,30.07,North,11,1.0,2.0,88,0.00,,,0.00,weatherlink.com 1.10,2013-03-13 13:11:00,
2013-03-13 07:41:00,37.8,35.0,30.06,ENE,71,2.0,3.0,89,0.00,,,0.00,weatherlink.com 1.10,2013-03-13 13:41:00,
2013-03-13 08:11:00,37.3,35.0,30.07,ENE,75,0.0,0.0,90,0.00,,,0.00,weatherlink.com 1.10,2013-03-13 14:11:00,
2013-03-13 08:26:00,37.4,35.0,30.08,ENE,71,0.0,0.0,89,0.00,,,0.00,weatherlink.com 1.10,2013-03-13 14:26:00,
2013-03-13 08:41:00,37.6,35.0,30.08,ESE,117,3.0,5.0,90,0.00,,,0.00,weatherlink.com 1.10,2013-03-13 14:41:00,
2013-03-13 08:56:00,38.1,35.0,30.08,ESE,120,2.0,2.0,89,0.00,,,0.00,weatherlink.com 1.10,2013-03-13 14:56:00,
2013-03-13 09:11:00,38.5,36.0,30.08,NW,321,0.0,3.0,89,0.00,,,0.00,weatherlink.com 1.10,2013-03-13 15:11:00,
2013-03-13 09:26:00,39.3,36.0,30.07,SSW,213,0.0,4.0,88,0.00,,,0.00,weatherlink.com 1.10,2013-03-13 15:26:00,
2013-03-13 09:42:00,40.4,36.0,30.08,SW,223,1.0,4.0,85,0.00,,,0.00,weatherlink.com 1.10,2013-03-13 15:42:00,
2013-03-13 09:56:00,41.5,35.0,30.08,ESE,113,1.0,6.0,79,0.00,,,0.00,weatherlink.com 1.10,2013-03-13 15:56:00,
2013-03-13 10:11:00,43.4,35.0,30.08,South,186,2.0,4.0,73,0.00,,,0.00,weatherlink.com 1.10,2013-03-13 16:11:00,
2013-03-13 10:42:00,44.9,36.0,30.08,WSW,257,0.0,5.0,70,0.00,,,0.00,weatherlink.com 1.10,2013-03-13 16:42:00,
2013-03-13 10:57:00,44.9,36.0,30.09,South,174,0.0,4.0,70,0.00,,,0.00,weatherlink.com 1.10,2013-03-13 16:57:00,
2013-03-13 11:12:00,45.6,36.0,30.09,West,275,1.0,3.0,69,0.00,,,0.00,weatherlink.com 1.10,2013-03-13 17:12:00,
2013-03-13 11:27:00,46.8,36.0,30.09,SW,232,1.0,3.0,67,0.00,,,0.00,weatherlink.com 1.10,2013-03-13 17:27:00,
2013-03-13 11:42:00,47.9,37.0,30.08,WSW,245,2.0,3.0,65,0.00,,,0.00,weatherlink.com 1.10,2013-03-13 17:42:00,
2013-03-13 11:57:00,48.6,36.0,30.08,West,278,0.0,4.0,62,0.00,,,0.00,weatherlink.com 1.10,2013-03-13 17:57:00,
2013-03-13 12:12:00,49.5,36.0,30.09,WNW,300,3.0,5.0,59,0.00,,,0.00,weatherlink.com 1.10,2013-03-13 18:12:00,
2013-03-13 12:27:00,50.5,36.0,30.09,ENE,66,0.0,5.0,58,0.00,,,0.00,weatherlink.com 1.10,2013-03-13 18:27:00,
2013-03-13 12:42:00,51.8,36.0,30.08,NNW,329,0.0,6.0,56,0.00,,,0.00,weatherlink.com 1.10,2013-03-13 18:42:00,
2013-03-13 12:57:00,52.3,36.0,30.08,North,5,2.0,4.0,55,0.00,,,0.00,weatherlink.com 1.10,2013-03-13 18:57:00,
2013-03-13 13:12:00,52.2,36.0,30.09,NW,306,2.0,6.0,54,0.00,,,0.00,weatherlink.com 1.10,2013-03-13 19:12:00,
2013-03-13 13:27:00,52.5,36.0,30.09,WNW,296,0.0,6.0,53,0.00,,,0.00,weatherlink.com 1.10,2013-03-13 19:27:00,
2013-03-13 13:42:00,52.9,36.0,30.08,South,173,0.0,3.0,53,0.00,,,0.00,weatherlink.com 1.10,2013-03-13 19:42:00,
2013-03-13 13:57:00,53.7,35.0,30.08,NNW,346,0.0,4.0,50,0.00,,,0.00,weatherlink.com 1.10,2013-03-13 19:57:00,
2013-03-13 14:12:00,54.5,35.0,30.07,SE,136,0.0,3.0,48,0.00,,,0.00,weatherlink.com 1.10,2013-03-13 20:12:00,
2013-03-13 14:27:00,56.6,33.0,30.06,North,360,4.0,5.0,41,0.00,,,0.00,weatherlink.com 1.10,2013-03-13 20:27:00,
2013-03-13 14:42:00,58.7,33.0,30.06,SSE,161,4.0,5.0,38,0.00,,,0.00,weatherlink.com 1.10,2013-03-13 20:42:00,
2013-03-13 14:57:00,59.7,33.0,30.05,South,173,4.0,10.0,37,0.00,,,0.00,weatherlink.com 1.10,2013-03-13 20:57:00,
2013-03-13 15:12:00,59.5,32.0,30.05,SSW,205,0.0,8.0,35,0.00,,,0.00,weatherlink.com 1.10,2013-03-13 21:12:00,
2013-03-13 15:27:00,59.7,32.0,30.04,SE,138,1.0,6.0,35,0.00,,,0.00,weatherlink.com 1.10,2013-03-13 21:27:00,
2013-03-13 15:42:00,59.8,31.0,30.04,South,188,4.0,8.0,34,0.00,,,0.00,weatherlink.com 1.10,2013-03-13 21:42:00,
2013-03-13 15:57:00,60.4,31.0,30.03,West,273,0.0,4.0,33,0.00,,,0.00,weatherlink.com 1.10,2013-03-13 21:57:00,
2013-03-13 16:12:00,60.6,31.0,30.03,SE,127,0.0,3.0,33,0.00,,,0.00,weatherlink.com 1.10,2013-03-13 22:12:00,
2013-03-13 16:27:00,60.8,32.0,30.02,North,355,6.0,6.0,34,0.00,,,0.00,weatherlink.com 1.10,2013-03-13 22:27:00,
2013-03-13 16:42:00,61.3,31.0,30.02,ENE,63,0.0,6.0,32,0.00,,,0.00,weatherlink.com 1.10,2013-03-13 22:42:00,
2013-03-13 16:57:00,61.5,30.0,30.02,ESE,105,0.0,5.0,30,0.00,,,0.00,weatherlink.com 1.10,2013-03-13 22:57:00,
2013-03-13 17:28:00,60.2,30.0,30.03,North,10,3.0,9.0,32,0.00,,,0.00,weatherlink.com 1.10,2013-03-13 23:28:00,
2013-03-13 17:43:00,59.9,30.0,30.03,NNE,22,5.0,9.0,32,0.00,,,0.00,weatherlink.com 1.10,2013-03-13 23:43:00,
2013-03-13 17:58:00,59.5,29.0,30.03,NNE,13,3.0,7.0,32,0.00,,,0.00,weatherlink.com 1.10,2013-03-13 23:58:00,
2013-03-13 18:13:00,59.2,28.0,30.02,NNW,335,6.0,7.0,31,0.00,,,0.00,weatherlink.com 1.10,2013-03-14 00:13:00,
2013-03-13 18:28:00,58.6,29.0,30.02,NNE,28,7.0,8.0,32,0.00,,,0.00,weatherlink.com 1.10,2013-03-14 00:28:00,
2013-03-13 18:43:00,58.0,28.0,30.02,ENE,59,5.0,9.0,32,0.00,,,0.00,weatherlink.com 1.10,2013-03-14 00:43:00,
2013-03-13 18:58:00,57.6,26.0,30.02,NE,51,5.0,8.0,30,0.00,,,0.00,weatherlink.com 1.10,2013-03-14 00:58:00,
2013-03-13 19:13:00,58.0,24.0,30.02,NNW,330,6.0,7.0,27,0.00,,,0.00,weatherlink.com 1.10,2013-03-14 01:13:00,
2013-03-13 19:28:00,58.0,23.0,30.02,North,5,3.0,8.0,26,0.00,,,0.00,weatherlink.com 1.10,2013-03-14 01:28:00,
2013-03-13 19:43:00,56.8,25.0,30.02,NNE,18,3.0,7.0,29,0.00,,,0.00,weatherlink.com 1.10,2013-03-14 01:43:00,
2013-03-13 19:58:00,56.2,25.0,30.02,NE,40,4.0,11.0,30,0.00,,,0.00,weatherlink.com 1.10,2013-03-14 01:58:00,
2013-03-13 20:13:00,56.3,27.0,30.01,NE,40,5.0,12.0,33,0.00,,,0.00,weatherlink.com 1.10,2013-03-14 02:13:00,
2013-03-13 20:28:00,55.2,28.0,30.02,NE,53,6.0,9.0,36,0.00,,,0.00,weatherlink.com 1.10,2013-03-14 02:28:00,
2013-03-13 20:43:00,54.5,28.0,30.02,ENE,65,7.0,9.0,36,0.00,,,0.00,weatherlink.com 1.10,2013-03-14 02:43:00,
2013-03-13 21:00:00,53.7,29.0,30.02,North,355,2.0,7.0,39,0.00,,,0.00,weatherlink.com 1.10,2013-03-14 03:00:00,
2013-03-13 21:13:00,52.5,29.0,30.02,NNW,329,0.0,1.0,40,0.00,,,0.00,weatherlink.com 1.10,2013-03-14 03:13:00,
2013-03-13 21:28:00,51.0,28.0,30.02,ESE,119,0.0,3.0,42,0.00,,,0.00,weatherlink.com 1.10,2013-03-14 03:28:00,
2013-03-13 21:43:00,50.4,28.0,30.03,ESE,119,0.0,0.0,43,0.00,,,0.00,weatherlink.com 1.10,2013-03-14 03:43:00,
2013-03-13 21:58:00,49.3,29.0,30.03,WNW,301,0.0,5.0,45,0.00,,,0.00,weatherlink.com 1.10,2013-03-14 03:58:00,
2013-03-13 22:13:00,48.2,29.0,30.03,East,92,0.0,3.0,48,0.00,,,0.00,weatherlink.com 1.10,2013-03-14 04:13:00,
2013-03-13 22:28:00,46.6,29.0,30.03,ESE,109,0.0,5.0,51,0.00,,,0.00,weatherlink.com 1.10,2013-03-14 04:28:00,
2013-03-13 22:43:00,47.0,29.0,30.03,East,84,0.0,4.0,50,0.00,,,0.00,weatherlink.com 1.10,2013-03-14 04:43:00,
2013-03-13 22:58:00,46.8,29.0,30.03,SE,124,0.0,2.0,51,0.00,,,0.00,weatherlink.com 1.10,2013-03-14 04:58:00,
2013-03-13 23:13:00,44.8,29.0,30.03,North,5,3.0,6.0,55,0.00,,,0.00,weatherlink.com 1.10,2013-03-14 05:13:00,
2013-03-13 23:28:00,43.3,29.0,30.03,ENE,69,4.0,5.0,58,0.00,,,0.00,weatherlink.com 1.10,2013-03-14 05:28:00,
2013-03-13 23:43:00,43.1,29.0,30.03,NNE,30,0.0,4.0,59,0.00,,,0.00,weatherlink.com 1.10,2013-03-14 05:43:00,
2013-03-13 23:58:00,42.9,29.0,30.02,ENE,71,5.0,8.0,59,0.00,,,0.00,weatherlink.com 1.10,2013-03-14 05:58:00,